Time;durP1;ratioP1;P1;durP2;ratioP2;P2;SDS_P1;SDS_P2;PMS_P1;PMS_P2;Temp;Humidity;BMP_temperature;BMP_pressure;BME280_temperature;BME280_humidity;BME280_pressure;Samples;Min_cycle;Max_cycle;Signal;HPM_P1;HPM_P2
2023/01/30 00:01:29;;;;;;;;;50.00;37.25;;;;;;;;5019425;28;45367;-81
2023/01/30 00:03:55;;;;;;;;;49.50;39.25;;;;;;;;5008041;27;45525;-81
2023/01/30 00:06:20;;;;;;;;;44.00;38.00;;;;;;;;5019430;28;45470;-81
2023/01/30 00:08:45;;;;;;;;;37.75;33.75;;;;;;;;5008834;28;45240;-81
2023/01/30 00:11:12;;;;;;;;;41.75;31.75;;;;;;;;5030017;28;45490;-82
2023/01/30 00:13:38;;;;;;;;;46.25;38.75;;;;;;;;5031627;27;45177;-81
2023/01/30 00:16:03;;;;;;;;;37.25;36.00;;;;;;;;5016252;28;45381;-81
2023/01/30 00:18:28;;;;;;;;;44.25;34.50;;;;;;;;5024225;28;45475;-81
2023/01/30 00:20:54;;;;;;;;;30.75;29.00;;;;;;;;5006792;28;45402;-81
2023/01/30 00:23:19;;;;;;;;;41.25;30.50;;;;;;;;5018986;28;45184;-81
2023/01/30 00:25:45;;;;;;;;;40.25;33.75;;;;;;;;5018771;28;45594;-81
2023/01/30 00:28:10;;;;;;;;;39.00;32.75;;;;;;;;5027438;28;45404;-81
2023/01/30 00:30:35;;;;;;;;;35.50;32.50;;;;;;;;5015807;28;44859;-81
2023/01/30 00:33:00;;;;;;;;;32.75;29.75;;;;;;;;5028141;27;45305;-79
2023/01/30 00:35:29;;;;;;;;;39.00;31.75;;;;;;;;4984373;28;46883;-81
2023/01/30 00:37:55;;;;;;;;;41.75;36.25;;;;;;;;5028474;28;45308;-81
2023/01/30 00:40:20;;;;;;;;;45.75;35.50;;;;;;;;5002342;28;45186;-81
2023/01/30 00:48:13;;;;;;;;;38.00;29.50;;;;;;;;5026458;28;45357;-81
2023/01/30 00:50:41;;;;;;;;;39.00;30.75;;;;;;;;5019717;28;45486;-81
2023/01/30 00:53:10;;;;;;;;;36.50;32.25;;;;;;;;5025234;28;45155;-81
2023/01/30 00:55:35;;;;;;;;;39.25;31.00;;;;;;;;5004365;28;46569;-81
2023/01/30 00:58:00;;;;;;;;;36.75;30.50;;;;;;;;5026815;28;45475;-81
2023/01/30 01:00:25;;;;;;;;;40.25;35.50;;;;;;;;5022543;28;45384;-81
2023/01/30 01:02:50;;;;;;;;;37.25;31.00;;;;;;;;5026487;28;45338;-80
2023/01/30 01:05:16;;;;;;;;;37.25;32.25;;;;;;;;5024227;28;45473;-81
2023/01/30 01:07:41;;;;;;;;;42.00;36.50;;;;;;;;5024988;28;45476;-80
2023/01/30 01:10:06;;;;;;;;;36.25;32.00;;;;;;;;5022417;28;45448;-81
2023/01/30 01:12:31;;;;;;;;;29.50;29.25;;;;;;;;5017959;27;45428;-81
2023/01/30 01:14:57;;;;;;;;;29.50;23.75;;;;;;;;5005799;28;46991;-81
2023/01/30 01:17:22;;;;;;;;;29.50;27.00;;;;;;;;5034207;27;45375;-81
2023/01/30 01:19:47;;;;;;;;;37.75;27.25;;;;;;;;5016466;28;45370;-80
2023/01/30 01:22:12;;;;;;;;;36.00;27.00;;;;;;;;5018406;28;45605;-81
2023/01/30 01:24:37;;;;;;;;;42.00;34.00;;;;;;;;4996542;28;46391;-80
2023/01/30 01:27:03;;;;;;;;;33.75;31.00;;;;;;;;5019773;28;45388;-81
2023/01/30 01:29:28;;;;;;;;;38.25;32.50;;;;;;;;5007220;28;45136;-80
2023/01/30 01:31:53;;;;;;;;;32.75;27.25;;;;;;;;5022075;28;45524;-81
2023/01/30 01:34:18;;;;;;;;;41.00;31.75;;;;;;;;5025911;28;45328;-81
2023/01/30 01:36:43;;;;;;;;;35.50;28.25;;;;;;;;5020770;28;45247;-81
2023/01/30 01:39:09;;;;;;;;;32.25;24.75;;;;;;;;5018268;28;45478;-82
2023/01/30 01:41:34;;;;;;;;;31.50;26.00;;;;;;;;5005920;28;46065;-81
2023/01/30 01:44:07;;;;;;;;;33.50;28.25;;;;;;;;5009272;28;46619;-80
2023/01/30 01:46:51;;;;;;;;;36.00;30.50;;;;;;;;5025163;28;45344;-80
2023/01/30 01:49:19;;;;;;;;;36.75;29.00;;;;;;;;5025170;28;45328;-81
2023/01/30 01:52:14;;;;;;;;;30.25;30.25;;;;;;;;5020026;28;44728;-81
2023/01/30 01:54:48;;;;;;;;;36.00;31.00;;;;;;;;5032424;27;45332;-80
2023/01/30 01:57:19;;;;;;;;;32.00;27.50;;;;;;;;4996008;27;45289;-80
2023/01/30 01:59:48;;;;;;;;;33.00;29.75;;;;;;;;5025848;28;45291;-80
2023/01/30 02:02:13;;;;;;;;;32.00;27.00;;;;;;;;4998521;28;47633;-81
2023/01/30 02:07:24;;;;;;;;;31.00;22.50;;;;;;;;5019480;28;45325;-81
2023/01/30 02:09:50;;;;;;;;;26.75;24.75;;;;;;;;5019531;28;45374;-80
2023/01/30 02:12:16;;;;;;;;;29.25;26.25;;;;;;;;5020326;27;45248;-80
2023/01/30 02:14:41;;;;;;;;;26.75;25.50;;;;;;;;5011478;28;45320;-80
2023/01/30 02:17:07;;;;;;;;;32.75;25.50;;;;;;;;5033036;27;45360;-80
2023/01/30 02:19:38;;;;;;;;;29.75;23.00;;;;;;;;5020425;28;45351;-80
2023/01/30 02:22:06;;;;;;;;;27.50;26.00;;;;;;;;5018185;28;45770;-80
2023/01/30 02:24:34;;;;;;;;;33.00;29.50;;;;;;;;5006373;27;45268;-80
2023/01/30 02:26:59;;;;;;;;;32.00;27.00;;;;;;;;5020206;28;45445;-80
2023/01/30 02:29:25;;;;;;;;;35.25;23.00;;;;;;;;5004946;28;45252;-79
2023/01/30 02:32:01;;;;;;;;;25.75;24.75;;;;;;;;5014585;28;45239;-80
2023/01/30 02:34:49;;;;;;;;;34.25;27.50;;;;;;;;4996395;28;46804;-80
2023/01/30 02:37:23;;;;;;;;;33.50;26.25;;;;;;;;5017173;28;45240;-80
2023/01/30 02:39:51;;;;;;;;;32.50;26.00;;;;;;;;4997997;28;45376;-80
2023/01/30 02:42:28;;;;;;;;;31.00;27.75;;;;;;;;5016372;28;45627;-80
2023/01/30 02:45:11;;;;;;;;;37.50;29.75;;;;;;;;5028290;28;46905;-81
2023/01/30 02:47:55;;;;;;;;;20.50;17.25;;;;;;;;4999920;28;45262;-81
2023/01/30 02:50:26;;;;;;;;;27.00;21.00;;;;;;;;5011085;28;45466;-81
2023/01/30 02:52:51;;;;;;;;;30.75;28.50;;;;;;;;5034047;28;46151;-80
2023/01/30 02:55:20;;;;;;;;;28.50;23.75;;;;;;;;4992601;28;45445;-81
2023/01/30 02:57:45;;;;;;;;;30.00;27.75;;;;;;;;5018980;28;45258;-81
2023/01/30 03:00:11;;;;;;;;;28.25;24.50;;;;;;;;5010822;28;45415;-80
2023/01/30 03:03:01;;;;;;;;;27.75;23.75;;;;;;;;5019212;28;45141;-79
2023/01/30 03:05:34;;;;;;;;;29.00;22.50;;;;;;;;5011631;28;46187;-80
2023/01/30 03:08:12;;;;;;;;;27.75;27.25;;;;;;;;4998544;28;45280;-81
2023/01/30 03:10:53;;;;;;;;;28.75;23.75;;;;;;;;5011720;28;45488;-79
2023/01/30 03:13:29;;;;;;;;;40.25;29.25;;;;;;;;5010939;27;45689;-80
2023/01/30 03:15:58;;;;;;;;;39.25;30.25;;;;;;;;5008245;28;46393;-80
2023/01/30 03:18:24;;;;;;;;;33.25;29.75;;;;;;;;5031658;28;45451;-80
2023/01/30 03:20:50;;;;;;;;;28.00;24.25;;;;;;;;5009400;28;45026;-80
2023/01/30 03:23:15;;;;;;;;;36.25;29.25;;;;;;;;5016166;28;45593;-80
2023/01/30 03:25:42;;;;;;;;;30.75;27.75;;;;;;;;5010673;28;45274;-80
2023/01/30 03:28:08;;;;;;;;;31.50;26.25;;;;;;;;4999945;28;45242;-81
2023/01/30 03:30:34;;;;;;;;;29.00;26.75;;;;;;;;5012152;28;45432;-81
2023/01/30 03:32:59;;;;;;;;;27.00;25.50;;;;;;;;5014174;28;45476;-81
2023/01/30 03:35:24;;;;;;;;;33.25;28.50;;;;;;;;5012911;28;46334;-80
2023/01/30 03:37:49;;;;;;;;;30.25;23.50;;;;;;;;5015955;28;45408;-80
2023/01/30 03:40:15;;;;;;;;;32.00;26.50;;;;;;;;4992473;28;46242;-80
2023/01/30 03:42:40;;;;;;;;;29.50;25.50;;;;;;;;5011562;28;45434;-80
2023/01/30 03:45:06;;;;;;;;;28.75;22.00;;;;;;;;4995936;28;45487;-80
2023/01/30 03:47:31;;;;;;;;;33.75;27.00;;;;;;;;5015833;28;45348;-80
2023/01/30 03:49:57;;;;;;;;;34.50;26.50;;;;;;;;5016929;28;45286;-80
2023/01/30 03:52:22;;;;;;;;;33.50;25.75;;;;;;;;5031385;28;47337;-81
2023/01/30 03:54:47;;;;;;;;;30.00;23.50;;;;;;;;5012595;28;45452;-81
2023/01/30 03:57:12;;;;;;;;;32.75;26.00;;;;;;;;5018992;28;45289;-80
2023/01/30 03:59:38;;;;;;;;;32.75;27.75;;;;;;;;5014469;28;45278;-80
2023/01/30 04:02:03;;;;;;;;;32.50;28.00;;;;;;;;5034706;28;47174;-80
2023/01/30 04:04:28;;;;;;;;;32.25;23.00;;;;;;;;4998296;28;46696;-80
2023/01/30 04:06:53;;;;;;;;;27.75;27.00;;;;;;;;5015812;28;45354;-80
2023/01/30 04:09:18;;;;;;;;;26.75;26.00;;;;;;;;5016544;28;45298;-80
2023/01/30 04:11:44;;;;;;;;;35.00;29.00;;;;;;;;5014578;28;45376;-80
2023/01/30 04:14:09;;;;;;;;;33.25;25.50;;;;;;;;5017247;27;45274;-80
2023/01/30 04:16:34;;;;;;;;;32.00;29.75;;;;;;;;5029651;28;45571;-80
2023/01/30 04:18:59;;;;;;;;;27.00;27.00;;;;;;;;5017627;28;45372;-80
2023/01/30 04:21:25;;;;;;;;;33.00;29.50;;;;;;;;5013492;28;45647;-80
2023/01/30 04:23:50;;;;;;;;;33.25;30.50;;;;;;;;5018501;28;46727;-80
2023/01/30 04:26:15;;;;;;;;;25.75;24.50;;;;;;;;5000000;28;45367;-80
2023/01/30 04:28:40;;;;;;;;;30.00;25.50;;;;;;;;5019505;27;45214;-80
2023/01/30 04:31:06;;;;;;;;;33.25;26.00;;;;;;;;5013255;28;45489;-80
2023/01/30 04:33:34;;;;;;;;;34.50;25.50;;;;;;;;5018807;28;45604;-81
2023/01/30 04:36:00;;;;;;;;;33.00;27.00;;;;;;;;4996504;28;45474;-80
2023/01/30 04:38:26;;;;;;;;;34.25;24.50;;;;;;;;5002020;27;45316;-81
2023/01/30 04:40:52;;;;;;;;;27.75;26.00;;;;;;;;5015575;28;45359;-80
2023/01/30 04:43:18;;;;;;;;;34.00;27.00;;;;;;;;5017990;28;45478;-81
2023/01/30 04:45:44;;;;;;;;;30.50;25.75;;;;;;;;4991343;28;45391;-80
2023/01/30 04:48:09;;;;;;;;;30.25;24.00;;;;;;;;5018647;27;45379;-80
2023/01/30 04:50:35;;;;;;;;;32.50;26.75;;;;;;;;5011790;28;45738;-80
2023/01/30 04:53:00;;;;;;;;;26.25;23.00;;;;;;;;5001189;28;46729;-80
2023/01/30 04:55:26;;;;;;;;;31.25;26.25;;;;;;;;5012824;28;45402;-80
2023/01/30 04:57:51;;;;;;;;;25.75;21.50;;;;;;;;5018535;28;45516;-80
2023/01/30 05:00:16;;;;;;;;;29.25;22.75;;;;;;;;4993855;28;45222;-80
2023/01/30 05:02:41;;;;;;;;;23.25;23.25;;;;;;;;5018588;28;47362;-80
2023/01/30 05:05:07;;;;;;;;;36.75;25.25;;;;;;;;4994203;28;45288;-80
2023/01/30 05:07:32;;;;;;;;;26.75;23.50;;;;;;;;5032857;28;45280;-80
2023/01/30 05:09:57;;;;;;;;;32.75;26.50;;;;;;;;5011171;28;45246;-80
2023/01/30 05:12:22;;;;;;;;;30.00;24.75;;;;;;;;5017059;27;45594;-80
2023/01/30 05:14:48;;;;;;;;;31.00;27.25;;;;;;;;5011648;28;45362;-81
2023/01/30 05:17:13;;;;;;;;;27.75;24.00;;;;;;;;5087190;27;45288;-80
2023/01/30 05:19:38;;;;;;;;;24.75;24.25;;;;;;;;4999127;28;46284;-80
2023/01/30 05:22:03;;;;;;;;;27.50;26.00;;;;;;;;5017452;28;45374;-80
2023/01/30 05:24:29;;;;;;;;;32.25;25.75;;;;;;;;5015251;28;45192;-80
2023/01/30 05:26:54;;;;;;;;;29.25;22.00;;;;;;;;5015813;28;45161;-80
2023/01/30 05:29:19;;;;;;;;;28.75;23.00;;;;;;;;5016654;27;44768;-80
2023/01/30 05:31:44;;;;;;;;;30.50;22.75;;;;;;;;5086060;27;46005;-80
2023/01/30 05:34:10;;;;;;;;;27.50;24.25;;;;;;;;4998489;28;45633;-80
2023/01/30 05:36:36;;;;;;;;;26.25;24.50;;;;;;;;5031783;28;45311;-80
2023/01/30 05:39:01;;;;;;;;;28.50;23.00;;;;;;;;5017171;28;45320;-79
2023/01/30 05:41:26;;;;;;;;;31.25;26.25;;;;;;;;5019033;28;46183;-80
2023/01/30 05:43:51;;;;;;;;;28.00;25.25;;;;;;;;5005529;28;45813;-80
2023/01/30 05:46:17;;;;;;;;;20.00;20.00;;;;;;;;5027789;28;45361;-80
2023/01/30 05:48:42;;;;;;;;;36.25;27.25;;;;;;;;5019055;28;45276;-81
2023/01/30 05:51:24;;;;;;;;;35.00;28.25;;;;;;;;4994449;28;48560;-81
2023/01/30 05:53:50;;;;;;;;;27.25;23.50;;;;;;;;5019250;28;45252;-80
2023/01/30 05:56:15;;;;;;;;;25.50;20.25;;;;;;;;5014325;28;45331;-80
2023/01/30 05:58:41;;;;;;;;;30.50;25.25;;;;;;;;5036029;28;47146;-81
2023/01/30 06:01:08;;;;;;;;;33.25;26.50;;;;;;;;5010816;28;45303;-81
2023/01/30 06:03:33;;;;;;;;;28.50;24.25;;;;;;;;5019358;28;45308;-80
2023/01/30 06:06:01;;;;;;;;;17.00;17.00;;;;;;;;4999254;28;45406;-80
2023/01/30 06:08:27;;;;;;;;;25.00;22.25;;;;;;;;5015447;28;45267;-80
2023/01/30 06:10:52;;;;;;;;;26.00;20.75;;;;;;;;5000250;28;47873;-80
2023/01/30 06:13:17;;;;;;;;;25.25;25.25;;;;;;;;5018319;27;45226;-80
2023/01/30 06:15:43;;;;;;;;;23.75;22.25;;;;;;;;5012692;28;45463;-80
2023/01/30 06:18:08;;;;;;;;;23.00;23.00;;;;;;;;5018434;28;45161;-80
2023/01/30 06:20:33;;;;;;;;;20.00;17.50;;;;;;;;5000083;28;46711;-80
2023/01/30 06:22:59;;;;;;;;;22.25;18.25;;;;;;;;4998575;28;45248;-81
2023/01/30 06:25:24;;;;;;;;;25.00;19.50;;;;;;;;5016155;28;45125;-80
2023/01/30 06:27:49;;;;;;;;;32.00;24.75;;;;;;;;5021823;27;45137;-80
2023/01/30 06:30:14;;;;;;;;;25.75;24.75;;;;;;;;5006282;28;45683;-80
2023/01/30 06:32:41;;;;;;;;;30.00;24.25;;;;;;;;5016911;28;45459;-80
2023/01/30 06:35:07;;;;;;;;;23.00;19.00;;;;;;;;5012499;28;45475;-81
2023/01/30 06:37:32;;;;;;;;;23.75;23.00;;;;;;;;5017791;28;45299;-81
2023/01/30 06:39:57;;;;;;;;;21.75;15.00;;;;;;;;5016812;27;45512;-81
2023/01/30 06:42:22;;;;;;;;;24.00;22.25;;;;;;;;5017164;28;45326;-80
2023/01/30 06:44:48;;;;;;;;;24.75;22.75;;;;;;;;5017856;28;45250;-80
2023/01/30 06:47:13;;;;;;;;;26.50;24.75;;;;;;;;5013695;28;45306;-80
2023/01/30 06:49:38;;;;;;;;;29.00;22.00;;;;;;;;5015421;28;45493;-80
2023/01/30 06:52:03;;;;;;;;;34.50;24.50;;;;;;;;4999252;28;45323;-80
2023/01/30 06:54:29;;;;;;;;;29.25;22.25;;;;;;;;5000050;28;45351;-81
2023/01/30 06:56:54;;;;;;;;;31.00;25.50;;;;;;;;5016407;28;45270;-80
2023/01/30 06:59:19;;;;;;;;;30.00;24.00;;;;;;;;5017639;28;46386;-80
2023/01/30 07:01:44;;;;;;;;;27.75;23.50;;;;;;;;5015187;28;45351;-79
2023/01/30 07:04:10;;;;;;;;;25.00;22.50;;;;;;;;5034914;28;45449;-80
2023/01/30 07:06:35;;;;;;;;;20.50;19.50;;;;;;;;5014238;28;45378;-80
2023/01/30 07:09:00;;;;;;;;;25.25;23.00;;;;;;;;5033655;28;46286;-76
2023/01/30 07:11:26;;;;;;;;;28.50;20.50;;;;;;;;5013901;28;45244;-81
2023/01/30 07:13:51;;;;;;;;;28.50;22.25;;;;;;;;5017715;27;45176;-80
2023/01/30 07:16:16;;;;;;;;;22.50;18.75;;;;;;;;5010884;28;45203;-79
2023/01/30 07:18:42;;;;;;;;;32.50;21.50;;;;;;;;5016911;28;45403;-81
2023/01/30 07:21:07;;;;;;;;;26.50;22.50;;;;;;;;5012518;28;45468;-77
2023/01/30 07:23:32;;;;;;;;;22.00;19.00;;;;;;;;5001305;28;45413;-80
2023/01/30 07:25:57;;;;;;;;;30.00;25.00;;;;;;;;5014027;28;45194;-81
2023/01/30 07:28:23;;;;;;;;;22.50;18.25;;;;;;;;5017852;28;45329;-80
2023/01/30 07:30:51;;;;;;;;;20.25;20.00;;;;;;;;4995043;28;45240;-79
2023/01/30 07:33:17;;;;;;;;;21.75;21.25;;;;;;;;5019782;28;45405;-80
2023/01/30 07:35:42;;;;;;;;;21.50;19.75;;;;;;;;5017479;28;45951;-80
2023/01/30 07:38:07;;;;;;;;;25.25;23.25;;;;;;;;5023316;28;45288;-79
2023/01/30 07:40:32;;;;;;;;;27.75;21.75;;;;;;;;5023935;28;45306;-79
2023/01/30 07:43:05;;;;;;;;;22.75;18.00;;;;;;;;5028114;28;45673;-81
2023/01/30 07:45:35;;;;;;;;;32.75;23.25;;;;;;;;5012434;28;45207;-77
2023/01/30 07:48:00;;;;;;;;;23.75;19.25;;;;;;;;5043560;28;47765;-81
2023/01/30 07:50:26;;;;;;;;;26.25;24.75;;;;;;;;5026736;28;45469;-80
2023/01/30 07:52:51;;;;;;;;;23.25;18.50;;;;;;;;5029268;28;45254;-78
2023/01/30 07:55:16;;;;;;;;;22.50;19.25;;;;;;;;5029124;28;45418;-78
2023/01/30 07:57:42;;;;;;;;;22.75;21.75;;;;;;;;5029502;28;45150;-78
2023/01/30 08:00:09;;;;;;;;;26.25;20.25;;;;;;;;5008008;28;45420;-80
2023/01/30 08:02:34;;;;;;;;;21.25;21.25;;;;;;;;5002711;28;45134;-80
2023/01/30 08:04:59;;;;;;;;;25.75;22.25;;;;;;;;5029752;28;45253;-82
2023/01/30 08:07:25;;;;;;;;;26.50;24.50;;;;;;;;5030548;28;45325;-81
2023/01/30 08:09:50;;;;;;;;;24.75;20.75;;;;;;;;5025891;28;45226;-78
2023/01/30 08:12:15;;;;;;;;;25.25;24.25;;;;;;;;5015311;27;45283;-78
2023/01/30 08:14:40;;;;;;;;;25.50;21.75;;;;;;;;5004157;28;45879;-80
2023/01/30 08:17:05;;;;;;;;;25.00;23.00;;;;;;;;5024146;28;45381;-78
2023/01/30 08:19:31;;;;;;;;;30.00;21.75;;;;;;;;5023776;28;45378;-79
2023/01/30 08:21:57;;;;;;;;;30.25;22.75;;;;;;;;5028287;28;45295;-79
2023/01/30 08:24:22;;;;;;;;;22.00;20.50;;;;;;;;5015901;28;45368;-79
2023/01/30 08:26:48;;;;;;;;;24.75;24.50;;;;;;;;5024033;28;45464;-79
2023/01/30 08:29:13;;;;;;;;;27.25;23.75;;;;;;;;5010307;27;45485;-80
2023/01/30 08:31:38;;;;;;;;;27.00;24.00;;;;;;;;5023677;28;45337;-80
2023/01/30 08:34:04;;;;;;;;;24.50;22.25;;;;;;;;5023908;28;45292;-80
2023/01/30 08:36:29;;;;;;;;;27.50;25.75;;;;;;;;5021073;28;45280;-80
2023/01/30 08:38:54;;;;;;;;;24.00;20.25;;;;;;;;5026695;28;45386;-78
2023/01/30 08:41:19;;;;;;;;;21.50;20.25;;;;;;;;5022044;28;45281;-77
2023/01/30 08:43:44;;;;;;;;;22.75;21.75;;;;;;;;5028519;28;45274;-80
2023/01/30 08:46:09;;;;;;;;;25.25;23.25;;;;;;;;5007156;28;46791;-82
2023/01/30 08:48:37;;;;;;;;;19.75;17.75;;;;;;;;5028900;27;45388;-80
2023/01/30 08:51:02;;;;;;;;;26.25;19.25;;;;;;;;4996915;28;45449;-79
2023/01/30 08:53:27;;;;;;;;;25.75;20.75;;;;;;;;5010576;28;45548;-77
2023/01/30 08:55:53;;;;;;;;;27.25;21.75;;;;;;;;5003710;28;48098;-80
2023/01/30 08:58:18;;;;;;;;;26.25;23.50;;;;;;;;5028399;28;45247;-78
2023/01/30 09:00:45;;;;;;;;;20.25;19.00;;;;;;;;5022347;28;45404;-77
2023/01/30 09:03:11;;;;;;;;;23.25;22.00;;;;;;;;5006444;28;47279;-77
2023/01/30 09:05:36;;;;;;;;;26.00;22.25;;;;;;;;5012971;27;45564;-77
2023/01/30 09:08:01;;;;;;;;;25.00;21.75;;;;;;;;4999952;28;45344;-78
2023/01/30 09:10:27;;;;;;;;;22.50;21.75;;;;;;;;5012651;28;45516;-77
2023/01/30 09:12:52;;;;;;;;;25.75;19.00;;;;;;;;5018020;27;45322;-77
2023/01/30 09:15:17;;;;;;;;;26.25;24.25;;;;;;;;5028109;28;47018;-78
2023/01/30 09:17:43;;;;;;;;;24.00;19.00;;;;;;;;5019495;28;44751;-78
2023/01/30 09:20:09;;;;;;;;;23.50;20.75;;;;;;;;5021487;28;45502;-78
2023/01/30 09:22:34;;;;;;;;;28.00;20.00;;;;;;;;5032003;28;45481;-80
2023/01/30 09:24:59;;;;;;;;;24.00;22.75;;;;;;;;5017982;28;45747;-78
2023/01/30 09:27:25;;;;;;;;;22.25;18.00;;;;;;;;5027666;28;45317;-78
2023/01/30 09:29:50;;;;;;;;;24.00;20.50;;;;;;;;5020609;28;45882;-77
2023/01/30 09:32:15;;;;;;;;;27.00;24.75;;;;;;;;5027531;28;45284;-78
2023/01/30 09:34:40;;;;;;;;;26.75;21.00;;;;;;;;5019469;28;45498;-79
2023/01/30 09:37:07;;;;;;;;;18.50;13.50;;;;;;;;4999567;28;45617;-77
2023/01/30 09:39:32;;;;;;;;;30.00;25.00;;;;;;;;5017717;28;45267;-78
2023/01/30 09:42:03;;;;;;;;;24.00;23.75;;;;;;;;4994506;27;45431;-75
2023/01/30 09:44:31;;;;;;;;;19.50;19.50;;;;;;;;5018034;28;45496;-79
2023/01/30 09:47:01;;;;;;;;;20.00;16.75;;;;;;;;5012629;28;45228;-79
2023/01/30 09:49:32;;;;;;;;;22.75;21.50;;;;;;;;4999463;28;45427;-79
2023/01/30 09:52:16;;;;;;;;;23.00;18.25;;;;;;;;5027393;28;45804;-76
2023/01/30 09:54:44;;;;;;;;;25.00;25.00;;;;;;;;4993494;28;46415;-78
2023/01/30 09:57:09;;;;;;;;;23.75;20.75;;;;;;;;4997701;28;45195;-77
2023/01/30 09:59:43;;;;;;;;;25.25;23.50;;;;;;;;4995038;28;45571;-76
2023/01/30 10:02:08;;;;;;;;;24.75;20.00;;;;;;;;4999940;28;45152;-79
2023/01/30 10:04:39;;;;;;;;;22.25;21.25;;;;;;;;4993909;28;45199;-78
2023/01/30 10:07:04;;;;;;;;;26.00;24.00;;;;;;;;5027315;28;45226;-79
2023/01/30 10:09:38;;;;;;;;;19.25;17.00;;;;;;;;4994612;28;45310;-80
2023/01/30 10:12:09;;;;;;;;;28.75;26.25;;;;;;;;4995304;27;45682;-82
2023/01/30 10:14:35;;;;;;;;;22.50;18.00;;;;;;;;4995072;28;45632;-81
2023/01/30 10:17:09;;;;;;;;;22.75;22.75;;;;;;;;4996668;28;45182;-81
2023/01/30 10:19:43;;;;;;;;;24.50;20.25;;;;;;;;4998224;28;45747;-81
2023/01/30 10:22:09;;;;;;;;;25.25;20.75;;;;;;;;4994429;28;45434;-80
2023/01/30 10:24:37;;;;;;;;;22.25;21.25;;;;;;;;4993784;27;46630;-81
2023/01/30 10:27:03;;;;;;;;;20.75;16.75;;;;;;;;5000358;28;45517;-80
2023/01/30 10:29:33;;;;;;;;;24.25;21.25;;;;;;;;4998814;28;45621;-81
2023/01/30 10:32:17;;;;;;;;;23.75;22.00;;;;;;;;5002716;28;45338;-83
2023/01/30 10:34:46;;;;;;;;;27.25;20.25;;;;;;;;4999750;28;45455;-79
2023/01/30 10:37:17;;;;;;;;;27.25;20.75;;;;;;;;5001020;28;45417;-81
2023/01/30 10:39:57;;;;;;;;;19.25;19.00;;;;;;;;5010897;28;44777;-82
2023/01/30 10:42:43;;;;;;;;;25.75;18.50;;;;;;;;5017758;28;46401;-81
2023/01/30 10:45:16;;;;;;;;;21.00;18.25;;;;;;;;4989338;28;45341;-82
2023/01/30 10:47:45;;;;;;;;;22.75;19.50;;;;;;;;4999456;28;45469;-82
2023/01/30 10:50:15;;;;;;;;;22.75;19.75;;;;;;;;4998881;28;45340;-82
2023/01/30 10:52:51;;;;;;;;;22.75;20.00;;;;;;;;5039274;28;46191;-82
2023/01/30 10:55:28;;;;;;;;;14.50;13.00;;;;;;;;5014407;28;45535;-80
2023/01/30 10:57:53;;;;;;;;;23.75;18.00;;;;;;;;5017746;28;45369;-82
2023/01/30 11:00:19;;;;;;;;;17.25;17.25;;;;;;;;4995587;28;45408;-79
2023/01/30 11:03:03;;;;;;;;;26.25;20.00;;;;;;;;5001455;27;47343;-81
2023/01/30 11:05:31;;;;;;;;;20.50;15.00;;;;;;;;5012615;28;45442;-81
2023/01/30 11:07:56;;;;;;;;;16.50;15.50;;;;;;;;5021880;28;44640;-85
2023/01/30 11:10:26;;;;;;;;;16.00;15.50;;;;;;;;5019045;27;45286;-82
2023/01/30 11:12:59;;;;;;;;;11.75;11.75;;;;;;;;5017812;27;45400;-81
2023/01/30 11:15:37;;;;;;;;;16.00;13.00;;;;;;;;5025494;28;46880;-82
2023/01/30 11:18:04;;;;;;;;;15.25;14.00;;;;;;;;5018360;28;45413;-82
2023/01/30 11:20:29;;;;;;;;;15.75;12.00;;;;;;;;5013369;27;45446;-82
2023/01/30 11:23:05;;;;;;;;;15.00;13.75;;;;;;;;5013909;28;45465;-80
2023/01/30 11:25:30;;;;;;;;;20.00;15.25;;;;;;;;5013135;28;45350;-81
2023/01/30 11:28:00;;;;;;;;;10.00;9.00;;;;;;;;5015260;28;45318;-81
2023/01/30 11:30:27;;;;;;;;;14.25;12.25;;;;;;;;5021537;28;46319;-82
2023/01/30 11:33:03;;;;;;;;;12.50;9.25;;;;;;;;4998369;27;46206;-81
2023/01/30 11:35:28;;;;;;;;;9.00;8.00;;;;;;;;5012217;28;45271;-79
2023/01/30 11:38:09;;;;;;;;;13.00;9.50;;;;;;;;5015334;28;45359;-78
2023/01/30 11:40:37;;;;;;;;;9.50;9.25;;;;;;;;4990547;28;45287;-79
2023/01/30 11:43:09;;;;;;;;;15.25;10.00;;;;;;;;5028501;28;45261;-80
2023/01/30 11:45:40;;;;;;;;;11.75;11.00;;;;;;;;5008916;28;45283;-78
2023/01/30 11:48:18;;;;;;;;;6.25;5.00;;;;;;;;5015503;28;45402;-76
2023/01/30 11:50:44;;;;;;;;;14.50;11.00;;;;;;;;4993087;28;45236;-81
2023/01/30 11:53:15;;;;;;;;;8.75;8.75;;;;;;;;4997913;28;47784;-78
2023/01/30 11:55:41;;;;;;;;;10.75;10.00;;;;;;;;5009352;28;45432;-79
2023/01/30 11:58:07;;;;;;;;;10.75;9.75;;;;;;;;4997524;28;45310;-79
2023/01/30 12:00:38;;;;;;;;;14.25;9.25;;;;;;;;5010265;28;45332;-77
2023/01/30 12:03:04;;;;;;;;;12.50;9.00;;;;;;;;5016663;28;44779;-78
2023/01/30 12:05:33;;;;;;;;;11.75;9.50;;;;;;;;5002291;28;45654;-80
2023/01/30 12:08:13;;;;;;;;;12.00;8.25;;;;;;;;4999494;28;45472;-84
2023/01/30 12:10:42;;;;;;;;;8.00;8.00;;;;;;;;5008347;27;45499;-85
2023/01/30 12:13:21;;;;;;;;;12.25;10.00;;;;;;;;5024637;27;46454;-82
2023/01/30 12:15:49;;;;;;;;;10.75;9.75;;;;;;;;5020381;28;45738;-78
2023/01/30 12:18:21;;;;;;;;;14.25;12.25;;;;;;;;5004614;28;46070;-78
2023/01/30 12:20:56;;;;;;;;;8.75;6.75;;;;;;;;5014082;28;45409;-76
2023/01/30 12:23:40;;;;;;;;;10.50;10.50;;;;;;;;5006719;28;46012;-78
2023/01/30 12:26:26;;;;;;;;;11.50;10.50;;;;;;;;5017602;28;46244;-79
2023/01/30 12:29:01;;;;;;;;;14.75;11.00;;;;;;;;5024918;27;45315;-77
2023/01/30 12:31:31;;;;;;;;;12.00;12.00;;;;;;;;5019211;28;45301;-77
2023/01/30 12:33:56;;;;;;;;;8.00;7.75;;;;;;;;5023107;28;45431;-76
2023/01/30 12:36:21;;;;;;;;;11.75;10.00;;;;;;;;5019853;28;45393;-77
2023/01/30 12:38:52;;;;;;;;;13.25;11.25;;;;;;;;5024430;28;45334;-79
2023/01/30 12:41:21;;;;;;;;;12.50;11.00;;;;;;;;5004823;28;45426;-77
2023/01/30 12:43:55;;;;;;;;;10.50;10.00;;;;;;;;5040826;28;46379;-78
2023/01/30 12:46:29;;;;;;;;;10.00;9.75;;;;;;;;5020250;28;47145;-78
2023/01/30 12:49:04;;;;;;;;;11.00;9.50;;;;;;;;5042389;28;45355;-78
2023/01/30 12:51:48;;;;;;;;;8.50;8.50;;;;;;;;5033447;28;45487;-76
2023/01/30 12:54:36;;;;;;;;;11.00;10.75;;;;;;;;5021229;28;45375;-78
2023/01/30 12:57:10;;;;;;;;;11.25;9.50;;;;;;;;5027176;27;46296;-78
2023/01/30 12:59:54;;;;;;;;;11.25;10.50;;;;;;;;5017488;28;45349;-79
2023/01/30 13:02:38;;;;;;;;;12.75;11.00;;;;;;;;5023109;28;45598;-78
2023/01/30 13:05:28;;;;;;;;;5.00;5.00;;;;;;;;5012029;28;45673;-79
2023/01/30 13:08:20;;;;;;;;;9.75;9.00;;;;;;;;5008105;28;45374;-79
2023/01/30 13:10:46;;;;;;;;;10.00;8.25;;;;;;;;5013958;28;45555;-78
2023/01/30 13:13:34;;;;;;;;;10.00;9.00;;;;;;;;5018143;27;45485;-77
2023/01/30 13:16:06;;;;;;;;;8.75;8.75;;;;;;;;5011537;28;45236;-79
2023/01/30 13:18:38;;;;;;;;;10.00;8.25;;;;;;;;5019837;27;45329;-78
2023/01/30 13:21:16;;;;;;;;;11.75;10.75;;;;;;;;5013993;28;45295;-78
2023/01/30 13:24:03;;;;;;;;;12.50;10.75;;;;;;;;5001734;28;45220;-78
2023/01/30 13:26:33;;;;;;;;;12.50;10.50;;;;;;;;5018662;28;45339;-79
2023/01/30 13:29:02;;;;;;;;;9.00;9.00;;;;;;;;5018102;28;45422;-79
2023/01/30 13:31:29;;;;;;;;;12.00;12.00;;;;;;;;5031363;28;45689;-78
2023/01/30 13:34:17;;;;;;;;;10.25;10.00;;;;;;;;5019104;28;45407;-79
2023/01/30 13:36:53;;;;;;;;;11.00;9.00;;;;;;;;4993746;28;45474;-79
2023/01/30 13:39:23;;;;;;;;;11.25;11.00;;;;;;;;5017259;28;46636;-78
2023/01/30 13:41:51;;;;;;;;;10.00;10.00;;;;;;;;5076190;27;45334;-77
2023/01/30 13:44:20;;;;;;;;;10.75;10.75;;;;;;;;5018099;28;45446;-79
2023/01/30 13:46:46;;;;;;;;;10.75;9.00;;;;;;;;5013565;28;45276;-77
2023/01/30 13:49:11;;;;;;;;;11.00;11.00;;;;;;;;5032459;28;46059;-78
2023/01/30 13:51:42;;;;;;;;;12.00;12.00;;;;;;;;5030764;27;45509;-79
2023/01/30 13:54:19;;;;;;;;;15.50;9.25;;;;;;;;5017568;28;45248;-77
2023/01/30 13:56:58;;;;;;;;;11.25;8.25;;;;;;;;5015409;28;45441;-79
2023/01/30 13:59:47;;;;;;;;;9.00;9.00;;;;;;;;5013465;28;46407;-78
2023/01/30 14:02:22;;;;;;;;;14.00;11.00;;;;;;;;5038946;28;45474;-78
2023/01/30 14:04:54;;;;;;;;;10.00;9.00;;;;;;;;5001552;28;45355;-78
2023/01/30 14:07:21;;;;;;;;;14.50;11.75;;;;;;;;5019792;28;45233;-78
2023/01/30 14:10:09;;;;;;;;;17.00;11.50;;;;;;;;5015867;28;45316;-79
2023/01/30 14:12:37;;;;;;;;;10.75;9.75;;;;;;;;5020325;27;45289;-79
2023/01/30 14:15:05;;;;;;;;;15.00;12.00;;;;;;;;5015076;28;45527;-79
2023/01/30 14:17:31;;;;;;;;;11.00;11.00;;;;;;;;5002430;28;45217;-79
2023/01/30 14:20:01;;;;;;;;;13.25;10.25;;;;;;;;5016328;28;45317;-79
2023/01/30 14:22:33;;;;;;;;;9.50;9.25;;;;;;;;5002402;28;46151;-79
2023/01/30 14:25:17;;;;;;;;;10.75;7.00;;;;;;;;5017161;28;45450;-79
2023/01/30 14:27:42;;;;;;;;;11.75;10.75;;;;;;;;5019523;28;45563;-78
2023/01/30 14:30:26;;;;;;;;;12.00;10.00;;;;;;;;5017711;28;45385;-79
2023/01/30 14:32:53;;;;;;;;;14.00;11.00;;;;;;;;5002176;28;45285;-78
2023/01/30 14:35:20;;;;;;;;;13.75;11.50;;;;;;;;5009607;28;45463;-79